Time;durP1;ratioP1;P1;durP2;ratioP2;P2;SDS_P1;SDS_P2;PMS_P1;PMS_P2;Temp;Humidity;BMP_temperature;BMP_pressure;BME280_temperature;BME280_humidity;BME280_pressure;Samples;Min_cycle;Max_cycle;Signal;HPM_P1;HPM_P2
2022/09/21 00:02:05;;;;;;;;;;;;;;;;;;5073099;28;19956;-66
2022/09/21 00:04:30;;;;;;;;;;;;;;;;;;5073422;28;19965;-66
2022/09/21 00:06:55;;;;;;;;;;;;;;;;;;5073558;28;19970;-66
2022/09/21 00:09:20;;;;;;;;;;;;;;;;;;5068132;28;19909;-66
2022/09/21 00:11:45;;;;;;;;;;;;;;;;;;5073363;28;19912;-66
2022/09/21 00:14:11;;;;;;;;;;;;;;;;;;5070012;28;19915;-66
2022/09/21 00:16:36;;;;;;;;;;;;;;;;;;5073572;28;19912;-66
2022/09/21 00:19:01;;;;;;;;;;;;;;;;;;5073646;28;19908;-66
2022/09/21 00:21:27;;;;;;;;;;;;;;;;;;5073232;28;20287;-66
2022/09/21 00:23:53;;;;;;;;;;;;;;;;;;5073531;28;19912;-66
2022/09/21 00:26:18;;;;;;;;;;;;;;;;;;5072946;28;19931;-67
2022/09/21 00:28:43;;;;;;;;;;;;;;;;;;5073457;28;19908;-66
2022/09/21 00:31:10;;;;;;;;;;;;;;;;;;5069530;28;19908;-66
2022/09/21 00:33:36;;;;;;;;;;;;;;;;;;5072998;28;19913;-66
2022/09/21 00:36:02;;;;;;;;;;;;;;;;;;5073522;28;19920;-66
2022/09/21 00:38:27;;;;;;;;;;;;;;;;;;5072713;28;19960;-66
2022/09/21 00:40:52;;;;;;;;;;;;;;;;;;5072981;28;19919;-66
2022/09/21 00:43:17;;;;;;;;;;;;;;;;;;5072991;28;19908;-66
2022/09/21 00:45:42;;;;;;;;;;;;;;;;;;5072889;28;19920;-66
2022/09/21 00:48:07;;;;;;;;;;;;;;;;;;5068659;28;19923;-66
2022/09/21 00:50:32;;;;;;;;;;;;;;;;;;5071210;28;19913;-66
2022/09/21 00:52:57;;;;;;;;;;;;;;;;;;5072782;28;19909;-66
2022/09/21 00:55:22;;;;;;;;;;;;;;;;;;5071814;28;19955;-66
2022/09/21 00:57:48;;;;;;;;;;;;;;;;;;5069614;28;20006;-66
2022/09/21 01:00:13;;;;;;;;;;;;;;;;;;5072696;28;20023;-66
2022/09/21 01:02:38;;;;;;;;;;;;;;;;;;5072668;28;19917;-66
2022/09/21 01:05:03;;;;;;;;;;;;;;;;;;5071363;28;19917;-66
2022/09/21 01:07:28;;;;;;;;;;;;;;;;;;5072523;28;19915;-66
2022/09/21 01:09:54;;;;;;;;;;;;;;;;;;5068500;28;19912;-66
2022/09/21 01:12:19;;;;;;;;;;;;;;;;;;5070506;28;19908;-66
2022/09/21 01:14:44;;;;;;;;;;;;;;;;;;5068998;28;19920;-66
2022/09/21 01:17:09;;;;;;;;;;;;;;;;;;5072835;28;19973;-67
2022/09/21 01:19:34;;;;;;;;;;;;;;;;;;5069257;28;19976;-66
2022/09/21 01:22:00;;;;;;;;;;;;;;;;;;5066432;28;19983;-66
2022/09/21 01:24:26;;;;;;;;;;;;;;;;;;5072447;28;19916;-66
2022/09/21 01:26:51;;;;;;;;;;;;;;;;;;5071047;28;19916;-66
2022/09/21 01:29:16;;;;;;;;;;;;;;;;;;5072089;28;19935;-66
2022/09/21 01:31:41;;;;;;;;;;;;;;;;;;5071035;28;19912;-66
2022/09/21 01:34:06;;;;;;;;;;;;;;;;;;5066711;28;20024;-66
2022/09/21 01:36:31;;;;;;;;;;;;;;;;;;5070141;28;19947;-66
2022/09/21 01:38:57;;;;;;;;;;;;;;;;;;5069351;28;19915;-66
2022/09/21 01:41:22;;;;;;;;;;;;;;;;;;5071058;28;19909;-66
2022/09/21 01:43:47;;;;;;;;;;;;;;;;;;5066163;28;19912;-66
2022/09/21 01:46:12;;;;;;;;;;;;;;;;;;5069927;28;19916;-66
2022/09/21 01:48:37;;;;;;;;;;;;;;;;;;5065042;28;20277;-66
2022/09/21 01:51:02;;;;;;;;;;;;;;;;;;5069653;28;19999;-66
2022/09/21 01:53:28;;;;;;;;;;;;;;;;;;5071523;28;19908;-66
2022/09/21 01:55:53;;;;;;;;;;;;;;;;;;5071133;28;19909;-66
2022/09/21 01:58:18;;;;;;;;;;;;;;;;;;5067330;28;19913;-67
2022/09/21 02:00:45;;;;;;;;;;;;;;;;;;5071681;28;19916;-67
2022/09/21 02:03:10;;;;;;;;;;;;;;;;;;5071178;28;19916;-67
2022/09/21 02:05:35;;;;;;;;;;;;;;;;;;5071569;28;19923;-67
2022/09/21 02:08:00;;;;;;;;;;;;;;;;;;5070539;28;19913;-67
2022/09/21 02:10:25;;;;;;;;;;;;;;;;;;5071069;28;20023;-67
2022/09/21 02:12:50;;;;;;;;;;;;;;;;;;5071426;28;19955;-67
2022/09/21 02:15:15;;;;;;;;;;;;;;;;;;5071303;28;19923;-67
2022/09/21 02:17:41;;;;;;;;;;;;;;;;;;5069209;28;19935;-67
2022/09/21 02:20:06;;;;;;;;;;;;;;;;;;5071320;28;19916;-66
2022/09/21 02:22:32;;;;;;;;;;;;;;;;;;5069612;28;19908;-66
2022/09/21 02:24:57;;;;;;;;;;;;;;;;;;5069382;28;19920;-67
2022/09/21 02:27:22;;;;;;;;;;;;;;;;;;5070527;28;19973;-67
2022/09/21 02:29:47;;;;;;;;;;;;;;;;;;5071054;28;19963;-67
2022/09/21 02:32:12;;;;;;;;;;;;;;;;;;5070843;28;20381;-67
2022/09/21 02:34:37;;;;;;;;;;;;;;;;;;5070910;28;20327;-67
2022/09/21 02:37:02;;;;;;;;;;;;;;;;;;5071086;28;19909;-66
2022/09/21 02:39:27;;;;;;;;;;;;;;;;;;5071002;28;19908;-66
2022/09/21 02:41:53;;;;;;;;;;;;;;;;;;5069308;28;20045;-66
2022/09/21 02:44:18;;;;;;;;;;;;;;;;;;5069181;28;19955;-66
2022/09/21 02:46:43;;;;;;;;;;;;;;;;;;5070713;28;20311;-66
2022/09/21 02:49:08;;;;;;;;;;;;;;;;;;5070510;28;19917;-66
2022/09/21 02:51:33;;;;;;;;;;;;;;;;;;5070779;28;19992;-66
2022/09/21 02:53:58;;;;;;;;;;;;;;;;;;5067619;28;20404;-66
2022/09/21 02:56:23;;;;;;;;;;;;;;;;;;5071157;28;19912;-67
2022/09/21 02:58:49;;;;;;;;;;;;;;;;;;5069794;28;19908;-66
2022/09/21 03:01:14;;;;;;;;;;;;;;;;;;5065989;28;20054;-66
2022/09/21 03:03:39;;;;;;;;;;;;;;;;;;5062328;28;20178;-66
2022/09/21 03:06:04;;;;;;;;;;;;;;;;;;5070663;28;20510;-66
2022/09/21 03:08:29;;;;;;;;;;;;;;;;;;5070250;28;19908;-66
2022/09/21 03:10:54;;;;;;;;;;;;;;;;;;5070496;28;19908;-66
2022/09/21 03:13:19;;;;;;;;;;;;;;;;;;5070160;28;20014;-66
2022/09/21 03:15:44;;;;;;;;;;;;;;;;;;5070262;28;19962;-66
2022/09/21 03:18:10;;;;;;;;;;;;;;;;;;5066903;28;19909;-66
2022/09/21 03:20:35;;;;;;;;;;;;;;;;;;5068891;28;19912;-66
2022/09/21 03:23:00;;;;;;;;;;;;;;;;;;5070411;28;20384;-66
2022/09/21 03:25:25;;;;;;;;;;;;;;;;;;5067863;28;19912;-66
2022/09/21 03:27:53;;;;;;;;;;;;;;;;;;5070240;28;19954;-66
2022/09/21 03:30:19;;;;;;;;;;;;;;;;;;5070318;28;19938;-66
2022/09/21 03:32:44;;;;;;;;;;;;;;;;;;5070025;28;19909;-66
2022/09/21 03:35:09;;;;;;;;;;;;;;;;;;5066402;28;20288;-66
2022/09/21 03:37:35;;;;;;;;;;;;;;;;;;5070353;28;19927;-66
2022/09/21 03:40:00;;;;;;;;;;;;;;;;;;5070011;28;20333;-66
2022/09/21 03:42:25;;;;;;;;;;;;;;;;;;5070079;28;19920;-66
2022/09/21 03:44:50;;;;;;;;;;;;;;;;;;5069863;28;19912;-66
2022/09/21 03:47:15;;;;;;;;;;;;;;;;;;5070287;28;19912;-66
2022/09/21 03:49:40;;;;;;;;;;;;;;;;;;5069684;28;19908;-66
2022/09/21 03:52:05;;;;;;;;;;;;;;;;;;5070138;28;19975;-66
2022/09/21 03:54:30;;;;;;;;;;;;;;;;;;5064816;28;19913;-66
2022/09/21 03:56:55;;;;;;;;;;;;;;;;;;5069193;28;20289;-66
2022/09/21 03:59:21;;;;;;;;;;;;;;;;;;5067979;28;19909;-66
2022/09/21 04:01:46;;;;;;;;;;;;;;;;;;5070256;28;20246;-66
2022/09/21 04:04:11;;;;;;;;;;;;;;;;;;5067129;28;19916;-66
2022/09/21 04:06:36;;;;;;;;;;;;;;;;;;5065243;28;19919;-66
2022/09/21 04:09:02;;;;;;;;;;;;;;;;;;5068969;28;19923;-66
2022/09/21 04:11:28;;;;;;;;;;;;;;;;;;5070377;28;19948;-66
2022/09/21 04:13:55;;;;;;;;;;;;;;;;;;5069352;28;19955;-66
2022/09/21 04:16:20;;;;;;;;;;;;;;;;;;5073537;28;19908;-66
2022/09/21 04:18:49;;;;;;;;;;;;;;;;;;5073585;28;19923;-66
2022/09/21 04:21:14;;;;;;;;;;;;;;;;;;5073618;28;19912;-65
2022/09/21 04:23:40;;;;;;;;;;;;;;;;;;5073379;28;20303;-65
2022/09/21 04:26:05;;;;;;;;;;;;;;;;;;5072713;28;19916;-65
2022/09/21 04:28:31;;;;;;;;;;;;;;;;;;5072980;28;19919;-66
2022/09/21 04:30:56;;;;;;;;;;;;;;;;;;5073190;28;20451;-66
2022/09/21 04:33:22;;;;;;;;;;;;;;;;;;5072948;28;19913;-66
2022/09/21 04:35:47;;;;;;;;;;;;;;;;;;5073053;28;19908;-66
2022/09/21 04:38:12;;;;;;;;;;;;;;;;;;5073251;28;19978;-66
2022/09/21 04:40:38;;;;;;;;;;;;;;;;;;5072945;28;19979;-66
2022/09/21 04:43:03;;;;;;;;;;;;;;;;;;5058639;28;19909;-66
2022/09/21 04:45:28;;;;;;;;;;;;;;;;;;5056832;28;20639;-66
2022/09/21 04:47:53;;;;;;;;;;;;;;;;;;5073980;28;19999;-66
2022/09/21 04:50:19;;;;;;;;;;;;;;;;;;5073212;28;20016;-66
2022/09/21 04:52:44;;;;;;;;;;;;;;;;;;5073916;28;19913;-66
2022/09/21 04:55:09;;;;;;;;;;;;;;;;;;5061223;28;19913;-66
2022/09/21 04:57:34;;;;;;;;;;;;;;;;;;5067348;28;19912;-66
2022/09/21 04:59:59;;;;;;;;;;;;;;;;;;5073890;28;19966;-67
2022/09/21 05:02:24;;;;;;;;;;;;;;;;;;5070588;28;19928;-66
2022/09/21 05:04:50;;;;;;;;;;;;;;;;;;5071501;28;20127;-66
2022/09/21 05:07:15;;;;;;;;;;;;;;;;;;5063072;28;20369;-66
2022/09/21 05:12:24;;;;;;;;;;;;;;;;;;5064091;28;19961;-66
2022/09/21 05:14:49;;;;;;;;;;;;;;;;;;5073227;28;19955;-66
2022/09/21 05:17:14;;;;;;;;;;;;;;;;;;5072263;28;19966;-65
2022/09/21 05:19:39;;;;;;;;;;;;;;;;;;5073099;28;19908;-66
2022/09/21 05:22:04;;;;;;;;;;;;;;;;;;5062088;28;19921;-66
2022/09/21 05:24:29;;;;;;;;;;;;;;;;;;5069913;28;19923;-66
2022/09/21 05:26:55;;;;;;;;;;;;;;;;;;5071911;28;20368;-66
2022/09/21 05:29:20;;;;;;;;;;;;;;;;;;5071607;28;19915;-66
2022/09/21 05:31:45;;;;;;;;;;;;;;;;;;5066403;28;19939;-66
2022/09/21 05:34:10;;;;;;;;;;;;;;;;;;5055703;28;19955;-66
2022/09/21 05:36:36;;;;;;;;;;;;;;;;;;5052947;28;20584;-66
2022/09/21 05:39:01;;;;;;;;;;;;;;;;;;5062659;28;19982;-66
2022/09/21 05:41:27;;;;;;;;;;;;;;;;;;5067889;28;19923;-66
2022/09/21 05:43:52;;;;;;;;;;;;;;;;;;5065498;28;19920;-66
2022/09/21 05:46:17;;;;;;;;;;;;;;;;;;5060225;28;19916;-66
2022/09/21 05:48:42;;;;;;;;;;;;;;;;;;5071464;28;19908;-66
2022/09/21 05:51:07;;;;;;;;;;;;;;;;;;5067258;28;20371;-66
2022/09/21 05:53:33;;;;;;;;;;;;;;;;;;5065733;28;19950;-66
2022/09/21 05:55:59;;;;;;;;;;;;;;;;;;5052493;28;19908;-66
2022/09/21 05:58:24;;;;;;;;;;;;;;;;;;5052384;28;19948;-66
2022/09/21 06:00:51;;;;;;;;;;;;;;;;;;5054385;28;19917;-66
2022/09/21 06:03:16;;;;;;;;;;;;;;;;;;5064815;28;19916;-66
2022/09/21 06:05:42;;;;;;;;;;;;;;;;;;5071159;28;19920;-66
2022/09/21 06:08:07;;;;;;;;;;;;;;;;;;5069858;28;20543;-66
2022/09/21 06:10:32;;;;;;;;;;;;;;;;;;5066575;28;19920;-66
2022/09/21 06:12:57;;;;;;;;;;;;;;;;;;5064224;28;19913;-66
2022/09/21 06:15:22;;;;;;;;;;;;;;;;;;5069212;28;19950;-66
2022/09/21 06:17:47;;;;;;;;;;;;;;;;;;5071228;28;19962;-66
2022/09/21 06:20:12;;;;;;;;;;;;;;;;;;5071365;28;19921;-66
2022/09/21 06:22:37;;;;;;;;;;;;;;;;;;5060552;28;19916;-66
2022/09/21 06:25:02;;;;;;;;;;;;;;;;;;5067292;28;19926;-66
2022/09/21 06:27:28;;;;;;;;;;;;;;;;;;5068461;28;19913;-66
2022/09/21 06:29:53;;;;;;;;;;;;;;;;;;5064362;28;19912;-66
2022/09/21 06:32:18;;;;;;;;;;;;;;;;;;5068182;28;20053;-66
2022/09/21 06:34:43;;;;;;;;;;;;;;;;;;5067349;28;19913;-66
2022/09/21 06:37:08;;;;;;;;;;;;;;;;;;5064599;28;19912;-66
2022/09/21 06:39:33;;;;;;;;;;;;;;;;;;5070253;28;19916;-66
2022/09/21 06:41:58;;;;;;;;;;;;;;;;;;5061136;28;19955;-66
2022/09/21 06:44:24;;;;;;;;;;;;;;;;;;5054702;28;19927;-67
2022/09/21 06:46:49;;;;;;;;;;;;;;;;;;5069949;28;20015;-66
2022/09/21 06:49:14;;;;;;;;;;;;;;;;;;5070333;28;19967;-66
2022/09/21 06:51:39;;;;;;;;;;;;;;;;;;5065843;28;19924;-66
2022/09/21 06:54:04;;;;;;;;;;;;;;;;;;5063548;28;19912;-66
2022/09/21 06:56:29;;;;;;;;;;;;;;;;;;5059992;28;19920;-66
2022/09/21 06:58:54;;;;;;;;;;;;;;;;;;5051691;28;19947;-66
2022/09/21 07:01:20;;;;;;;;;;;;;;;;;;5059875;28;19917;-66
2022/09/21 07:03:45;;;;;;;;;;;;;;;;;;5060459;28;19931;-66
2022/09/21 07:06:10;;;;;;;;;;;;;;;;;;5060632;28;19925;-66
2022/09/21 07:08:35;;;;;;;;;;;;;;;;;;5068629;28;19913;-66
2022/09/21 07:11:01;;;;;;;;;;;;;;;;;;5058864;28;19916;-67
2022/09/21 07:13:26;;;;;;;;;;;;;;;;;;5056853;28;21020;-67
2022/09/21 07:15:51;;;;;;;;;;;;;;;;;;5068561;28;19913;-66
2022/09/21 07:18:17;;;;;;;;;;;;;;;;;;5067724;28;19915;-66
2022/09/21 07:20:42;;;;;;;;;;;;;;;;;;5066605;28;19995;-66
2022/09/21 07:23:07;;;;;;;;;;;;;;;;;;5066511;28;19986;-66
2022/09/21 07:25:33;;;;;;;;;;;;;;;;;;5064920;28;19921;-66
2022/09/21 07:27:58;;;;;;;;;;;;;;;;;;5066950;28;19912;-66
2022/09/21 07:30:23;;;;;;;;;;;;;;;;;;5063454;28;19913;-66
2022/09/21 07:32:48;;;;;;;;;;;;;;;;;;5064421;28;20361;-67
2022/09/21 07:35:13;;;;;;;;;;;;;;;;;;5067070;28;19922;-67
2022/09/21 07:37:39;;;;;;;;;;;;;;;;;;5078731;28;19921;-66
2022/09/21 07:40:05;;;;;;;;;;;;;;;;;;5065771;28;19916;-66
2022/09/21 07:42:30;;;;;;;;;;;;;;;;;;5056411;28;20297;-66
2022/09/21 07:44:55;;;;;;;;;;;;;;;;;;5052840;28;19917;-66
2022/09/21 07:47:20;;;;;;;;;;;;;;;;;;5055949;28;20269;-67
2022/09/21 07:49:45;;;;;;;;;;;;;;;;;;5064151;28;20417;-67
2022/09/21 07:52:11;;;;;;;;;;;;;;;;;;5065849;28;19917;-67
2022/09/21 07:54:36;;;;;;;;;;;;;;;;;;5063168;28;19932;-67
2022/09/21 07:59:45;;;;;;;;;;;;;;;;;;5059346;28;20392;-67
2022/09/21 08:02:10;;;;;;;;;;;;;;;;;;5064430;28;19916;-67
2022/09/21 08:04:35;;;;;;;;;;;;;;;;;;5065076;28;19999;-67
2022/09/21 08:07:00;;;;;;;;;;;;;;;;;;5073177;28;19987;-67
2022/09/21 08:09:25;;;;;;;;;;;;;;;;;;5068259;28;19990;-67
2022/09/21 08:11:51;;;;;;;;;;;;;;;;;;5064552;28;19913;-67
2022/09/21 08:14:19;;;;;;;;;;;;;;;;;;5069911;28;19974;-67
2022/09/21 08:16:45;;;;;;;;;;;;;;;;;;5070179;28;19912;-67
2022/09/21 08:19:10;;;;;;;;;;;;;;;;;;5066884;28;19912;-67
2022/09/21 08:21:36;;;;;;;;;;;;;;;;;;5057825;28;19916;-67
2022/09/21 08:24:01;;;;;;;;;;;;;;;;;;5053038;28;19982;-67
2022/09/21 08:26:26;;;;;;;;;;;;;;;;;;5070000;28;19920;-67
2022/09/21 08:28:51;;;;;;;;;;;;;;;;;;5056206;28;20007;-67
2022/09/21 08:31:17;;;;;;;;;;;;;;;;;;5063468;28;19912;-67
2022/09/21 08:33:42;;;;;;;;;;;;;;;;;;5073352;28;19920;-67
2022/09/21 08:36:08;;;;;;;;;;;;;;;;;;5072200;28;19912;-67
2022/09/21 08:38:33;;;;;;;;;;;;;;;;;;5073979;28;20002;-67
2022/09/21 08:40:58;;;;;;;;;;;;;;;;;;5072233;28;19966;-67
2022/09/21 08:43:24;;;;;;;;;;;;;;;;;;5072232;28;19913;-67
2022/09/21 08:45:49;;;;;;;;;;;;;;;;;;5066008;28;19917;-67
2022/09/21 08:48:14;;;;;;;;;;;;;;;;;;5066080;28;19912;-67
2022/09/21 08:50:39;;;;;;;;;;;;;;;;;;5072882;28;20448;-67
2022/09/21 08:53:05;;;;;;;;;;;;;;;;;;5070521;28;19916;-67
2022/09/21 08:55:30;;;;;;;;;;;;;;;;;;5056799;28;19920;-67
2022/09/21 08:57:55;;;;;;;;;;;;;;;;;;5055486;28;20054;-68
2022/09/21 09:00:20;;;;;;;;;;;;;;;;;;5071420;28;19924;-67
2022/09/21 09:02:45;;;;;;;;;;;;;;;;;;5060850;28;20384;-67
2022/09/21 09:05:10;;;;;;;;;;;;;;;;;;5071705;28;20032;-67
2022/09/21 09:07:35;;;;;;;;;;;;;;;;;;5073115;28;19970;-67
2022/09/21 09:10:00;;;;;;;;;;;;;;;;;;5066962;28;19920;-67
2022/09/21 09:12:26;;;;;;;;;;;;;;;;;;5073642;28;19912;-67
2022/09/21 09:14:51;;;;;;;;;;;;;;;;;;5073253;28;20002;-67
2022/09/21 09:17:16;;;;;;;;;;;;;;;;;;5067964;28;20177;-67
2022/09/21 09:19:42;;;;;;;;;;;;;;;;;;5060917;28;19922;-67
2022/09/21 09:22:07;;;;;;;;;;;;;;;;;;5062387;28;19913;-67
2022/09/21 09:24:32;;;;;;;;;;;;;;;;;;5053305;28;19913;-67
2022/09/21 09:26:57;;;;;;;;;;;;;;;;;;5070578;28;20029;-67
2022/09/21 09:29:22;;;;;;;;;;;;;;;;;;5067896;28;19912;-67
2022/09/21 09:31:47;;;;;;;;;;;;;;;;;;5059679;28;19999;-65
2022/09/21 09:34:13;;;;;;;;;;;;;;;;;;5056453;28;19936;-65
2022/09/21 09:36:38;;;;;;;;;;;;;;;;;;5055469;28;20297;-65
2022/09/21 09:39:03;;;;;;;;;;;;;;;;;;5069026;28;19966;-65
2022/09/21 09:41:29;;;;;;;;;;;;;;;;;;5064097;28;19913;-65
2022/09/21 09:43:54;;;;;;;;;;;;;;;;;;5069945;28;20376;-65
2022/09/21 09:46:19;;;;;;;;;;;;;;;;;;5067960;28;19998;-64
2022/09/21 09:48:44;;;;;;;;;;;;;;;;;;5064440;28;19913;-65
2022/09/21 09:51:09;;;;;;;;;;;;;;;;;;5067170;28;19916;-64
2022/09/21 09:53:34;;;;;;;;;;;;;;;;;;5061758;28;20279;-65
2022/09/21 09:56:00;;;;;;;;;;;;;;;;;;5062550;28;19948;-64
2022/09/21 09:58:25;;;;;;;;;;;;;;;;;;5070889;28;19999;-64
2022/09/21 10:00:50;;;;;;;;;;;;;;;;;;5070723;28;20034;-64
2022/09/21 10:03:16;;;;;;;;;;;;;;;;;;5064426;28;19916;-64
2022/09/21 10:05:41;;;;;;;;;;;;;;;;;;5070941;28;20456;-65
2022/09/21 10:08:06;;;;;;;;;;;;;;;;;;5062579;28;20681;-64
2022/09/21 10:10:32;;;;;;;;;;;;;;;;;;5071071;28;20364;-66
2022/09/21 10:12:57;;;;;;;;;;;;;;;;;;5071681;28;20113;-67
2022/09/21 10:15:22;;;;;;;;;;;;;;;;;;5071904;28;19939;-67
2022/09/21 10:17:47;;;;;;;;;;;;;;;;;;5069361;28;19939;-67
2022/09/21 10:20:12;;;;;;;;;;;;;;;;;;5055932;28;19973;-67
2022/09/21 10:22:37;;;;;;;;;;;;;;;;;;5065929;28;19913;-67
2022/09/21 10:25:04;;;;;;;;;;;;;;;;;;5053609;28;20413;-67
2022/09/21 10:27:30;;;;;;;;;;;;;;;;;;5064248;28;20380;-67
2022/09/21 10:29:56;;;;;;;;;;;;;;;;;;5065224;28;20494;-67
2022/09/21 10:32:21;;;;;;;;;;;;;;;;;;5063961;28;19912;-67
2022/09/21 10:34:46;;;;;;;;;;;;;;;;;;5052006;28;20424;-67
2022/09/21 10:37:12;;;;;;;;;;;;;;;;;;5052582;28;19917;-67
2022/09/21 10:39:37;;;;;;;;;;;;;;;;;;5052603;28;20369;-67
2022/09/21 10:42:02;;;;;;;;;;;;;;;;;;5067455;28;19912;-67
2022/09/21 10:44:27;;;;;;;;;;;;;;;;;;5071785;28;19912;-67
2022/09/21 10:46:52;;;;;;;;;;;;;;;;;;5070833;28;19995;-67
2022/09/21 10:49:17;;;;;;;;;;;;;;;;;;5068314;28;19974;-67
2022/09/21 10:51:43;;;;;;;;;;;;;;;;;;5064986;28;20331;-67
2022/09/21 10:54:08;;;;;;;;;;;;;;;;;;5066894;28;19920;-67
2022/09/21 10:56:33;;;;;;;;;;;;;;;;;;5067103;28;19915;-67
2022/09/21 10:58:58;;;;;;;;;;;;;;;;;;5064121;28;19909;-67
2022/09/21 11:01:23;;;;;;;;;;;;;;;;;;5052162;28;19921;-66
2022/09/21 11:03:48;;;;;;;;;;;;;;;;;;5054151;28;19917;-67
2022/09/21 11:06:13;;;;;;;;;;;;;;;;;;5055653;28;20416;-67
2022/09/21 11:08:38;;;;;;;;;;;;;;;;;;5052616;28;19917;-67
2022/09/21 11:11:04;;;;;;;;;;;;;;;;;;5051425;28;19919;-67
2022/09/21 11:13:29;;;;;;;;;;;;;;;;;;5061986;28;19916;-67
2022/09/21 11:15:54;;;;;;;;;;;;;;;;;;5062411;28;19945;-66
2022/09/21 11:18:19;;;;;;;;;;;;;;;;;;5065421;28;19917;-66
2022/09/21 11:20:44;;;;;;;;;;;;;;;;;;5053359;28;20299;-66
2022/09/21 11:23:09;;;;;;;;;;;;;;;;;;5063191;28;19912;-66
2022/09/21 11:25:35;;;;;;;;;;;;;;;;;;5073281;28;19920;-67
2022/09/21 11:28:00;;;;;;;;;;;;;;;;;;5056988;28;19913;-66
2022/09/21 11:30:25;;;;;;;;;;;;;;;;;;5066317;28;19920;-67
2022/09/21 11:32:50;;;;;;;;;;;;;;;;;;5074452;28;19916;-66
2022/09/21 11:35:15;;;;;;;;;;;;;;;;;;5074047;28;20019;-66
2022/09/21 11:37:41;;;;;;;;;;;;;;;;;;5064870;28;19916;-67
2022/09/21 11:40:06;;;;;;;;;;;;;;;;;;5066998;28;19917;-66
2022/09/21 11:42:32;;;;;;;;;;;;;;;;;;5067125;28;19912;-67
2022/09/21 11:44:57;;;;;;;;;;;;;;;;;;5074291;28;19921;-66
2022/09/21 11:47:22;;;;;;;;;;;;;;;;;;5061371;28;19920;-67
2022/09/21 11:49:47;;;;;;;;;;;;;;;;;;5055042;28;19909;-66
2022/09/21 11:52:12;;;;;;;;;;;;;;;;;;5069513;28;19943;-66
2022/09/21 11:54:37;;;;;;;;;;;;;;;;;;5060342;28;19913;-66
2022/09/21 11:57:03;;;;;;;;;;;;;;;;;;5063351;28;19943;-67
2022/09/21 11:59:28;;;;;;;;;;;;;;;;;;5074686;28;19913;-66
2022/09/21 12:01:54;;;;;;;;;;;;;;;;;;5088525;28;19912;-67
2022/09/21 12:04:19;;;;;;;;;;;;;;;;;;5092641;28;19946;-66
2022/09/21 12:06:44;;;;;;;;;;;;;;;;;;5093014;28;19919;-67
2022/09/21 12:09:10;;;;;;;;;;;;;;;;;;5084601;28;19917;-67
2022/09/21 12:11:36;;;;;;;;;;;;;;;;;;5091388;28;19916;-66
2022/09/21 12:14:01;;;;;;;;;;;;;;;;;;5093355;28;20325;-66
2022/09/21 12:16:26;;;;;;;;;;;;;;;;;;5084992;28;19951;-66
2022/09/21 12:18:51;;;;;;;;;;;;;;;;;;5094089;28;19998;-67
2022/09/21 12:21:16;;;;;;;;;;;;;;;;;;5093109;28;20360;-67
2022/09/21 12:23:42;;;;;;;;;;;;;;;;;;5094898;28;20427;-67
2022/09/21 12:26:07;;;;;;;;;;;;;;;;;;5090160;28;19924;-67
2022/09/21 12:28:32;;;;;;;;;;;;;;;;;;5085269;28;19913;-66
2022/09/21 12:30:57;;;;;;;;;;;;;;;;;;5094032;28;19976;-67
2022/09/21 12:33:23;;;;;;;;;;;;;;;;;;5091434;28;19950;-66
2022/09/21 12:35:48;;;;;;;;;;;;;;;;;;5083874;28;19920;-66
2022/09/21 12:38:13;;;;;;;;;;;;;;;;;;5087116;28;20628;-65
2022/09/21 12:40:38;;;;;;;;;;;;;;;;;;5083143;28;19913;-66
2022/09/21 12:43:03;;;;;;;;;;;;;;;;;;5090989;28;19920;-65
2022/09/21 12:45:28;;;;;;;;;;;;;;;;;;5081806;28;20291;-65
2022/09/21 12:47:54;;;;;;;;;;;;;;;;;;5089938;28;20352;-65
2022/09/21 12:50:20;;;;;;;;;;;;;;;;;;5073662;28;20287;-65
2022/09/21 12:52:45;;;;;;;;;;;;;;;;;;5082576;28;19921;-65
2022/09/21 12:55:10;;;;;;;;;;;;;;;;;;5093912;28;20347;-65
2022/09/21 12:57:35;;;;;;;;;;;;;;;;;;5092391;28;19912;-65
2022/09/21 13:00:00;;;;;;;;;;;;;;;;;;5091578;28;20006;-65
2022/09/21 13:02:25;;;;;;;;;;;;;;;;;;5092446;28;19971;-65
2022/09/21 13:04:52;;;;;;;;;;;;;;;;;;5091957;28;19916;-65
2022/09/21 13:07:17;;;;;;;;;;;;;;;;;;5089268;28;19949;-66
2022/09/21 13:09:42;;;;;;;;;;;;;;;;;;5074635;28;19959;-64
2022/09/21 13:12:07;;;;;;;;;;;;;;;;;;5092816;28;19908;-65
2022/09/21 13:14:35;;;;;;;;;;;;;;;;;;5092970;28;19915;-65
2022/09/21 13:17:01;;;;;;;;;;;;;;;;;;5092744;28;19959;-65
2022/09/21 13:19:27;;;;;;;;;;;;;;;;;;5092710;28;20417;-65
2022/09/21 13:21:53;;;;;;;;;;;;;;;;;;5092643;28;20404;-65
2022/09/21 13:24:18;;;;;;;;;;;;;;;;;;5091269;28;20380;-66
2022/09/21 13:26:43;;;;;;;;;;;;;;;;;;5092044;28;19930;-68
2022/09/21 13:29:08;;;;;;;;;;;;;;;;;;5091848;28;19912;-67
2022/09/21 13:31:34;;;;;;;;;;;;;;;;;;5095373;28;19916;-67
2022/09/21 13:34:00;;;;;;;;;;;;;;;;;;5093598;28;20368;-67
2022/09/21 13:36:25;;;;;;;;;;;;;;;;;;5092518;28;19916;-68
2022/09/21 13:38:50;;;;;;;;;;;;;;;;;;5076660;28;20391;-66
2022/09/21 13:41:16;;;;;;;;;;;;;;;;;;5079670;28;19949;-66
2022/09/21 13:43:45;;;;;;;;;;;;;;;;;;5092907;28;19923;-66
2022/09/21 13:46:10;;;;;;;;;;;;;;;;;;5085379;28;19962;-65
2022/09/21 13:48:36;;;;;;;;;;;;;;;;;;5072823;28;19944;-65
2022/09/21 13:51:01;;;;;;;;;;;;;;;;;;5076874;28;19913;-65
2022/09/21 13:53:27;;;;;;;;;;;;;;;;;;5097880;28;20275;-66
2022/09/21 13:55:52;;;;;;;;;;;;;;;;;;5099613;28;19908;-65
2022/09/21 13:58:17;;;;;;;;;;;;;;;;;;5092780;28;20385;-65
2022/09/21 14:00:43;;;;;;;;;;;;;;;;;;5090991;28;19928;-65
2022/09/21 14:03:08;;;;;;;;;;;;;;;;;;5074914;28;19908;-65
2022/09/21 14:05:34;;;;;;;;;;;;;;;;;;5091030;28;19920;-65
2022/09/21 14:07:59;;;;;;;;;;;;;;;;;;5092839;28;20372;-65
2022/09/21 14:10:24;;;;;;;;;;;;;;;;;;5092470;28;20261;-65
2022/09/21 14:12:49;;;;;;;;;;;;;;;;;;5072921;28;20382;-65
2022/09/21 14:15:14;;;;;;;;;;;;;;;;;;5072481;28;19999;-65
2022/09/21 14:17:39;;;;;;;;;;;;;;;;;;5089303;28;19962;-65
2022/09/21 14:20:05;;;;;;;;;;;;;;;;;;5095219;28;19919;-65
2022/09/21 14:22:30;;;;;;;;;;;;;;;;;;5080774;28;19909;-65
2022/09/21 14:24:56;;;;;;;;;;;;;;;;;;5075644;28;19920;-65
2022/09/21 14:27:24;;;;;;;;;;;;;;;;;;5091817;28;19915;-65
2022/09/21 14:29:49;;;;;;;;;;;;;;;;;;5091206;28;19912;-65
2022/09/21 14:32:15;;;;;;;;;;;;;;;;;;5088924;28;19918;-65
2022/09/21 14:34:40;;;;;;;;;;;;;;;;;;5091696;28;19930;-65
2022/09/21 14:37:05;;;;;;;;;;;;;;;;;;5089777;28;20272;-65
2022/09/21 14:39:30;;;;;;;;;;;;;;;;;;5091364;28;20334;-66
2022/09/21 14:41:56;;;;;;;;;;;;;;;;;;5091348;28;19912;-66
2022/09/21 14:44:21;;;;;;;;;;;;;;;;;;5091759;28;19912;-66
2022/09/21 14:46:46;;;;;;;;;;;;;;;;;;5090759;28;20003;-66
2022/09/21 14:49:11;;;;;;;;;;;;;;;;;;5071618;28;19919;-66
2022/09/21 14:51:37;;;;;;;;;;;;;;;;;;5087874;28;19916;-66
2022/09/21 14:54:02;;;;;;;;;;;;;;;;;;5082366;28;19916;-66
2022/09/21 14:56:28;;;;;;;;;;;;;;;;;;5104518;28;20006;-66
2022/09/21 14:58:54;;;;;;;;;;;;;;;;;;5101333;28;19953;-66
2022/09/21 15:01:19;;;;;;;;;;;;;;;;;;5091162;28;19920;-66
2022/09/21 15:03:44;;;;;;;;;;;;;;;;;;5091352;28;19914;-65
2022/09/21 15:11:40;;;;;;;;;;;;;;;;;;5084726;28;19923;-66
2022/09/21 15:14:05;;;;;;;;;;;;;;;;;;5071425;28;19908;-65
2022/09/21 15:16:34;;;;;;;;;;;;;;;;;;5087652;28;20011;-65
2022/09/21 15:19:03;;;;;;;;;;;;;;;;;;5091726;28;19908;-65
2022/09/21 15:21:28;;;;;;;;;;;;;;;;;;5090540;28;19912;-65
2022/09/21 15:23:53;;;;;;;;;;;;;;;;;;5092690;28;19934;-65
2022/09/21 15:26:19;;;;;;;;;;;;;;;;;;5089866;28;20450;-66
2022/09/21 15:28:48;;;;;;;;;;;;;;;;;;5080592;28;19916;-65
2022/09/21 15:31:14;;;;;;;;;;;;;;;;;;5078013;28;20257;-65
2022/09/21 15:33:41;;;;;;;;;;;;;;;;;;5084039;28;19947;-65
2022/09/21 15:36:08;;;;;;;;;;;;;;;;;;5080026;28;19916;-65
2022/09/21 15:38:35;;;;;;;;;;;;;;;;;;5088786;28;19912;-64
2022/09/21 15:41:00;;;;;;;;;;;;;;;;;;5086274;28;20327;-65
2022/09/21 15:43:25;;;;;;;;;;;;;;;;;;5076967;28;20393;-65
2022/09/21 15:45:50;;;;;;;;;;;;;;;;;;5073024;28;20380;-65
2022/09/21 15:48:15;;;;;;;;;;;;;;;;;;5085340;28;19920;-67
2022/09/21 15:50:41;;;;;;;;;;;;;;;;;;5082604;28;19962;-67
2022/09/21 15:53:08;;;;;;;;;;;;;;;;;;5084294;28;19979;-67
2022/09/21 15:55:33;;;;;;;;;;;;;;;;;;5088935;28;19916;-67
2022/09/21 15:57:58;;;;;;;;;;;;;;;;;;5079882;28;19920;-66
2022/09/21 16:00:23;;;;;;;;;;;;;;;;;;5087017;28;19938;-67
2022/09/21 16:02:49;;;;;;;;;;;;;;;;;;5088522;28;19920;-65
2022/09/21 16:05:14;;;;;;;;;;;;;;;;;;5088034;28;19923;-65
2022/09/21 16:07:40;;;;;;;;;;;;;;;;;;5084930;28;20372;-64
2022/09/21 16:10:05;;;;;;;;;;;;;;;;;;5086317;28;19994;-65
2022/09/21 16:12:30;;;;;;;;;;;;;;;;;;5084773;28;19912;-65
2022/09/21 16:14:55;;;;;;;;;;;;;;;;;;5097000;28;19923;-64
2022/09/21 16:17:21;;;;;;;;;;;;;;;;;;5087755;28;19919;-64
2022/09/21 16:19:46;;;;;;;;;;;;;;;;;;5091034;28;20004;-68
2022/09/21 16:22:12;;;;;;;;;;;;;;;;;;5091200;28;19920;-67
2022/09/21 16:24:37;;;;;;;;;;;;;;;;;;5088850;28;19916;-67
2022/09/21 16:27:02;;;;;;;;;;;;;;;;;;5086044;28;19943;-67
2022/09/21 16:29:28;;;;;;;;;;;;;;;;;;5092234;28;20343;-67
2022/09/21 16:31:53;;;;;;;;;;;;;;;;;;5085980;28;19962;-65
2022/09/21 16:34:20;;;;;;;;;;;;;;;;;;5085431;28;19912;-64
2022/09/21 16:36:45;;;;;;;;;;;;;;;;;;5090523;28;19916;-64
2022/09/21 16:39:10;;;;;;;;;;;;;;;;;;5084216;28;19913;-64
2022/09/21 16:41:36;;;;;;;;;;;;;;;;;;5088933;28;20031;-64
2022/09/21 16:44:02;;;;;;;;;;;;;;;;;;5087069;28;20364;-64